sensor_id;sensor_type;location;lat;lon;timestamp;P1;durP1;ratioP1;P2;durP2;ratioP2
842;SDS011;407;48.884;9.126;2022-12-18T00:01:41;45.95;;;19.27;;
842;SDS011;407;48.884;9.126;2022-12-18T00:04:11;49.22;;;18.55;;
842;SDS011;407;48.884;9.126;2022-12-18T00:06:43;45.20;;;19.50;;
842;SDS011;407;48.884;9.126;2022-12-18T00:09:09;44.85;;;19.23;;
842;SDS011;407;48.884;9.126;2022-12-18T00:11:35;40.95;;;16.98;;
842;SDS011;407;48.884;9.126;2022-12-18T00:14:01;46.20;;;19.63;;
842;SDS011;407;48.884;9.126;2022-12-18T00:16:27;48.58;;;18.10;;
842;SDS011;407;48.884;9.126;2022-12-18T00:18:56;51.88;;;20.30;;
842;SDS011;407;48.884;9.126;2022-12-18T00:21:25;40.72;;;16.23;;
842;SDS011;407;48.884;9.126;2022-12-18T00:23:51;46.60;;;17.40;;
842;SDS011;407;48.884;9.126;2022-12-18T00:26:17;46.27;;;18.40;;
842;SDS011;407;48.884;9.126;2022-12-18T00:28:49;48.17;;;19.20;;
842;SDS011;407;48.884;9.126;2022-12-18T00:31:16;47.45;;;19.42;;
842;SDS011;407;48.884;9.126;2022-12-18T00:33:43;41.05;;;16.73;;
842;SDS011;407;48.884;9.126;2022-12-18T00:36:11;40.83;;;16.40;;
842;SDS011;407;48.884;9.126;2022-12-18T00:38:38;49.22;;;18.88;;
842;SDS011;407;48.884;9.126;2022-12-18T00:41:05;41.83;;;17.35;;
842;SDS011;407;48.884;9.126;2022-12-18T00:43:31;49.75;;;19.23;;
842;SDS011;407;48.884;9.126;2022-12-18T00:45:59;38.65;;;17.55;;
842;SDS011;407;48.884;9.126;2022-12-18T00:48:25;42.40;;;16.55;;
842;SDS011;407;48.884;9.126;2022-12-18T00:50:51;40.30;;;18.30;;
842;SDS011;407;48.884;9.126;2022-12-18T00:53:16;45.03;;;18.90;;
842;SDS011;407;48.884;9.126;2022-12-18T00:55:43;49.47;;;16.87;;
842;SDS011;407;48.884;9.126;2022-12-18T00:58:09;32.97;;;14.65;;
842;SDS011;407;48.884;9.126;2022-12-18T01:00:35;40.23;;;17.30;;
842;SDS011;407;48.884;9.126;2022-12-18T01:03:01;47.42;;;18.45;;
842;SDS011;407;48.884;9.126;2022-12-18T01:05:27;51.85;;;18.17;;
842;SDS011;407;48.884;9.126;2022-12-18T01:07:53;41.30;;;17.55;;
842;SDS011;407;48.884;9.126;2022-12-18T01:10:19;49.60;;;21.63;;
842;SDS011;407;48.884;9.126;2022-12-18T01:12:45;41.43;;;17.97;;
842;SDS011;407;48.884;9.126;2022-12-18T01:15:11;43.87;;;18.10;;
842;SDS011;407;48.884;9.126;2022-12-18T01:17:38;52.53;;;19.10;;
842;SDS011;407;48.884;9.126;2022-12-18T01:20:04;41.72;;;18.65;;
842;SDS011;407;48.884;9.126;2022-12-18T01:22:30;44.33;;;18.17;;
842;SDS011;407;48.884;9.126;2022-12-18T01:24:58;44.00;;;17.05;;
842;SDS011;407;48.884;9.126;2022-12-18T01:27:24;45.80;;;18.07;;
842;SDS011;407;48.884;9.126;2022-12-18T01:29:49;49.90;;;19.90;;
842;SDS011;407;48.884;9.126;2022-12-18T01:32:15;38.77;;;19.30;;
842;SDS011;407;48.884;9.126;2022-12-18T01:34:40;40.33;;;18.33;;
842;SDS011;407;48.884;9.126;2022-12-18T01:37:06;41.47;;;18.75;;
842;SDS011;407;48.884;9.126;2022-12-18T01:39:32;49.90;;;19.23;;
842;SDS011;407;48.884;9.126;2022-12-18T01:41:59;39.22;;;16.50;;
842;SDS011;407;48.884;9.126;2022-12-18T01:47:38;49.28;;;19.65;;
842;SDS011;407;48.884;9.126;2022-12-18T01:52:50;42.80;;;17.05;;
842;SDS011;407;48.884;9.126;2022-12-18T01:55:22;49.25;;;19.33;;
842;SDS011;407;48.884;9.126;2022-12-18T01:57:51;49.20;;;17.80;;
842;SDS011;407;48.884;9.126;2022-12-18T02:00:19;47.90;;;17.92;;
842;SDS011;407;48.884;9.126;2022-12-18T02:02:46;42.75;;;18.38;;
842;SDS011;407;48.884;9.126;2022-12-18T02:05:14;39.13;;;16.73;;
842;SDS011;407;48.884;9.126;2022-12-18T02:13:13;45.35;;;17.45;;
842;SDS011;407;48.884;9.126;2022-12-18T02:15:59;39.67;;;16.10;;
842;SDS011;407;48.884;9.126;2022-12-18T02:18:34;46.10;;;17.73;;
842;SDS011;407;48.884;9.126;2022-12-18T02:28:41;38.90;;;16.70;;
842;SDS011;407;48.884;9.126;2022-12-18T02:31:11;42.28;;;17.17;;
842;SDS011;407;48.884;9.126;2022-12-18T02:33:40;44.85;;;17.38;;
842;SDS011;407;48.884;9.126;2022-12-18T02:36:09;48.92;;;20.13;;
842;SDS011;407;48.884;9.126;2022-12-18T02:38:36;44.03;;;16.92;;
842;SDS011;407;48.884;9.126;2022-12-18T02:41:03;37.90;;;17.55;;
842;SDS011;407;48.884;9.126;2022-12-18T02:43:30;41.30;;;15.98;;
842;SDS011;407;48.884;9.126;2022-12-18T02:45:56;49.50;;;17.77;;
842;SDS011;407;48.884;9.126;2022-12-18T02:48:25;43.03;;;17.70;;
842;SDS011;407;48.884;9.126;2022-12-18T02:51:03;45.58;;;17.25;;
842;SDS011;407;48.884;9.126;2022-12-18T02:53:53;45.08;;;17.42;;
842;SDS011;407;48.884;9.126;2022-12-18T02:56:29;35.92;;;15.65;;
842;SDS011;407;48.884;9.126;2022-12-18T02:59:11;42.90;;;16.73;;
842;SDS011;407;48.884;9.126;2022-12-18T03:04:11;42.17;;;16.77;;
842;SDS011;407;48.884;9.126;2022-12-18T03:06:46;42.13;;;14.77;;
842;SDS011;407;48.884;9.126;2022-12-18T03:09:20;37.35;;;14.63;;
842;SDS011;407;48.884;9.126;2022-12-18T03:11:52;44.80;;;16.20;;
842;SDS011;407;48.884;9.126;2022-12-18T03:14:40;38.60;;;15.80;;
842;SDS011;407;48.884;9.126;2022-12-18T03:17:11;41.83;;;19.50;;
842;SDS011;407;48.884;9.126;2022-12-18T03:19:41;40.25;;;19.05;;
842;SDS011;407;48.884;9.126;2022-12-18T03:22:08;43.17;;;16.50;;
842;SDS011;407;48.884;9.126;2022-12-18T03:24:35;39.80;;;15.18;;
842;SDS011;407;48.884;9.126;2022-12-18T03:27:05;40.80;;;17.10;;
842;SDS011;407;48.884;9.126;2022-12-18T03:29:42;40.97;;;15.82;;
842;SDS011;407;48.884;9.126;2022-12-18T03:32:12;41.90;;;15.00;;
842;SDS011;407;48.884;9.126;2022-12-18T03:34:44;37.63;;;14.93;;
842;SDS011;407;48.884;9.126;2022-12-18T03:37:14;37.28;;;15.43;;
842;SDS011;407;48.884;9.126;2022-12-18T03:39:39;37.42;;;13.82;;
842;SDS011;407;48.884;9.126;2022-12-18T03:50:15;32.97;;;15.88;;
842;SDS011;407;48.884;9.126;2022-12-18T03:55:15;36.70;;;14.03;;
842;SDS011;407;48.884;9.126;2022-12-18T03:57:41;34.00;;;15.05;;
842;SDS011;407;48.884;9.126;2022-12-18T04:00:10;40.00;;;15.05;;
842;SDS011;407;48.884;9.126;2022-12-18T04:02:44;36.63;;;15.67;;
842;SDS011;407;48.884;9.126;2022-12-18T04:05:14;35.45;;;13.85;;
842;SDS011;407;48.884;9.126;2022-12-18T04:07:41;33.47;;;12.77;;
842;SDS011;407;48.884;9.126;2022-12-18T04:10:09;33.42;;;13.73;;
842;SDS011;407;48.884;9.126;2022-12-18T04:12:37;30.33;;;13.32;;
842;SDS011;407;48.884;9.126;2022-12-18T04:15:02;34.83;;;13.90;;
842;SDS011;407;48.884;9.126;2022-12-18T04:17:29;33.88;;;14.73;;
842;SDS011;407;48.884;9.126;2022-12-18T04:19:55;32.17;;;12.38;;
842;SDS011;407;48.884;9.126;2022-12-18T04:22:20;28.98;;;11.82;;
842;SDS011;407;48.884;9.126;2022-12-18T04:24:46;32.60;;;13.25;;
842;SDS011;407;48.884;9.126;2022-12-18T04:27:12;27.27;;;11.40;;
842;SDS011;407;48.884;9.126;2022-12-18T04:29:37;40.67;;;14.43;;
842;SDS011;407;48.884;9.126;2022-12-18T04:32:03;35.80;;;14.97;;
842;SDS011;407;48.884;9.126;2022-12-18T04:34:28;27.25;;;12.63;;
842;SDS011;407;48.884;9.126;2022-12-18T04:36:54;35.17;;;13.85;;
842;SDS011;407;48.884;9.126;2022-12-18T04:39:20;30.93;;;13.07;;
842;SDS011;407;48.884;9.126;2022-12-18T04:41:45;32.53;;;12.40;;
842;SDS011;407;48.884;9.126;2022-12-18T04:44:11;32.43;;;12.43;;
842;SDS011;407;48.884;9.126;2022-12-18T04:46:36;34.55;;;13.15;;
842;SDS011;407;48.884;9.126;2022-12-18T04:49:02;33.97;;;14.52;;
842;SDS011;407;48.884;9.126;2022-12-18T04:51:27;27.23;;;13.20;;
842;SDS011;407;48.884;9.126;2022-12-18T04:53:53;33.80;;;14.03;;
842;SDS011;407;48.884;9.126;2022-12-18T04:56:19;29.15;;;13.32;;
842;SDS011;407;48.884;9.126;2022-12-18T04:58:44;34.35;;;13.00;;
842;SDS011;407;48.884;9.126;2022-12-18T05:01:11;32.20;;;14.88;;
842;SDS011;407;48.884;9.126;2022-12-18T05:03:38;35.13;;;12.85;;
842;SDS011;407;48.884;9.126;2022-12-18T05:06:04;38.63;;;15.50;;
842;SDS011;407;48.884;9.126;2022-12-18T05:08:30;35.70;;;13.40;;
842;SDS011;407;48.884;9.126;2022-12-18T05:11:00;37.78;;;12.20;;
842;SDS011;407;48.884;9.126;2022-12-18T05:13:27;34.57;;;13.57;;
842;SDS011;407;48.884;9.126;2022-12-18T05:15:53;33.15;;;13.73;;
842;SDS011;407;48.884;9.126;2022-12-18T05:18:19;39.72;;;13.00;;
842;SDS011;407;48.884;9.126;2022-12-18T05:20:45;34.83;;;13.10;;
842;SDS011;407;48.884;9.126;2022-12-18T05:23:10;29.53;;;12.80;;
842;SDS011;407;48.884;9.126;2022-12-18T05:25:36;29.52;;;12.30;;
842;SDS011;407;48.884;9.126;2022-12-18T05:28:02;34.30;;;14.80;;
842;SDS011;407;48.884;9.126;2022-12-18T05:30:27;34.50;;;11.35;;
842;SDS011;407;48.884;9.126;2022-12-18T05:32:53;32.08;;;14.88;;
842;SDS011;407;48.884;9.126;2022-12-18T05:35:19;35.72;;;14.60;;
842;SDS011;407;48.884;9.126;2022-12-18T05:37:44;33.43;;;13.93;;
842;SDS011;407;48.884;9.126;2022-12-18T05:40:10;34.60;;;12.80;;
842;SDS011;407;48.884;9.126;2022-12-18T05:42:36;33.10;;;13.27;;
842;SDS011;407;48.884;9.126;2022-12-18T05:45:02;32.50;;;12.35;;
842;SDS011;407;48.884;9.126;2022-12-18T05:47:28;28.95;;;12.43;;
842;SDS011;407;48.884;9.126;2022-12-18T05:49:54;37.25;;;14.05;;
842;SDS011;407;48.884;9.126;2022-12-18T05:52:20;33.22;;;11.88;;
842;SDS011;407;48.884;9.126;2022-12-18T05:54:45;37.13;;;12.93;;
842;SDS011;407;48.884;9.126;2022-12-18T05:57:11;30.65;;;14.02;;
842;SDS011;407;48.884;9.126;2022-12-18T05:59:37;32.85;;;13.43;;
842;SDS011;407;48.884;9.126;2022-12-18T06:02:02;35.50;;;13.47;;
842;SDS011;407;48.884;9.126;2022-12-18T06:04:31;29.80;;;12.93;;
842;SDS011;407;48.884;9.126;2022-12-18T06:06:56;32.63;;;13.15;;
842;SDS011;407;48.884;9.126;2022-12-18T06:09:22;30.02;;;13.40;;
842;SDS011;407;48.884;9.126;2022-12-18T06:11:48;33.70;;;14.07;;
842;SDS011;407;48.884;9.126;2022-12-18T06:14:16;33.80;;;13.50;;
842;SDS011;407;48.884;9.126;2022-12-18T06:16:42;32.00;;;13.20;;
842;SDS011;407;48.884;9.126;2022-12-18T06:19:07;35.07;;;12.50;;
842;SDS011;407;48.884;9.126;2022-12-18T06:21:38;34.50;;;13.40;;
842;SDS011;407;48.884;9.126;2022-12-18T06:24:04;34.57;;;13.60;;
842;SDS011;407;48.884;9.126;2022-12-18T06:26:30;31.58;;;12.80;;
842;SDS011;407;48.884;9.126;2022-12-18T06:28:56;31.30;;;13.75;;
842;SDS011;407;48.884;9.126;2022-12-18T06:31:21;28.42;;;13.30;;
842;SDS011;407;48.884;9.126;2022-12-18T06:33:47;36.40;;;12.97;;
842;SDS011;407;48.884;9.126;2022-12-18T06:36:13;32.73;;;12.47;;
842;SDS011;407;48.884;9.126;2022-12-18T06:38:40;37.05;;;14.05;;
842;SDS011;407;48.884;9.126;2022-12-18T06:41:08;30.42;;;12.75;;
842;SDS011;407;48.884;9.126;2022-12-18T06:43:34;37.03;;;13.95;;
842;SDS011;407;48.884;9.126;2022-12-18T06:46:00;31.75;;;12.40;;
842;SDS011;407;48.884;9.126;2022-12-18T06:48:27;38.60;;;13.20;;
842;SDS011;407;48.884;9.126;2022-12-18T06:50:52;27.60;;;10.80;;
842;SDS011;407;48.884;9.126;2022-12-18T06:53:18;32.30;;;12.93;;
842;SDS011;407;48.884;9.126;2022-12-18T06:55:43;30.83;;;11.73;;
842;SDS011;407;48.884;9.126;2022-12-18T06:58:09;29.73;;;11.90;;
842;SDS011;407;48.884;9.126;2022-12-18T07:00:34;33.03;;;13.45;;
842;SDS011;407;48.884;9.126;2022-12-18T07:03:00;30.03;;;11.83;;
842;SDS011;407;48.884;9.126;2022-12-18T07:05:26;33.20;;;13.53;;
842;SDS011;407;48.884;9.126;2022-12-18T07:07:51;37.80;;;14.40;;
842;SDS011;407;48.884;9.126;2022-12-18T07:10:17;34.17;;;12.07;;
842;SDS011;407;48.884;9.126;2022-12-18T07:12:43;28.88;;;11.18;;
842;SDS011;407;48.884;9.126;2022-12-18T07:15:08;30.58;;;11.18;;
842;SDS011;407;48.884;9.126;2022-12-18T07:17:34;28.73;;;12.50;;
842;SDS011;407;48.884;9.126;2022-12-18T07:20:00;23.25;;;10.98;;
842;SDS011;407;48.884;9.126;2022-12-18T07:22:26;25.58;;;10.30;;
842;SDS011;407;48.884;9.126;2022-12-18T07:24:52;36.95;;;13.50;;
842;SDS011;407;48.884;9.126;2022-12-18T07:27:17;28.53;;;13.77;;
842;SDS011;407;48.884;9.126;2022-12-18T07:29:43;34.15;;;11.88;;
842;SDS011;407;48.884;9.126;2022-12-18T07:32:08;31.25;;;12.65;;
842;SDS011;407;48.884;9.126;2022-12-18T07:34:34;31.87;;;13.70;;
842;SDS011;407;48.884;9.126;2022-12-18T07:37:00;36.07;;;14.23;;
842;SDS011;407;48.884;9.126;2022-12-18T07:39:26;35.87;;;15.80;;
842;SDS011;407;48.884;9.126;2022-12-18T07:41:51;38.53;;;15.93;;
842;SDS011;407;48.884;9.126;2022-12-18T07:44:35;30.13;;;12.93;;
842;SDS011;407;48.884;9.126;2022-12-18T07:47:01;27.98;;;12.63;;
842;SDS011;407;48.884;9.126;2022-12-18T07:49:27;35.00;;;13.63;;
842;SDS011;407;48.884;9.126;2022-12-18T07:51:54;30.73;;;14.27;;
842;SDS011;407;48.884;9.126;2022-12-18T07:54:23;34.85;;;14.65;;
842;SDS011;407;48.884;9.126;2022-12-18T07:56:50;34.13;;;14.45;;
842;SDS011;407;48.884;9.126;2022-12-18T07:59:16;29.70;;;13.63;;
842;SDS011;407;48.884;9.126;2022-12-18T08:01:42;27.85;;;11.50;;
842;SDS011;407;48.884;9.126;2022-12-18T08:04:08;35.15;;;13.77;;
842;SDS011;407;48.884;9.126;2022-12-18T08:06:34;28.00;;;13.23;;
842;SDS011;407;48.884;9.126;2022-12-18T08:08:59;32.03;;;12.53;;
842;SDS011;407;48.884;9.126;2022-12-18T08:11:26;33.90;;;13.60;;
842;SDS011;407;48.884;9.126;2022-12-18T08:13:52;31.45;;;12.77;;
842;SDS011;407;48.884;9.126;2022-12-18T08:16:18;32.97;;;12.60;;
842;SDS011;407;48.884;9.126;2022-12-18T08:18:44;29.35;;;13.27;;
842;SDS011;407;48.884;9.126;2022-12-18T08:21:11;29.40;;;13.47;;
842;SDS011;407;48.884;9.126;2022-12-18T08:23:38;29.50;;;14.10;;
842;SDS011;407;48.884;9.126;2022-12-18T08:26:04;35.95;;;14.57;;
842;SDS011;407;48.884;9.126;2022-12-18T08:28:30;33.33;;;14.43;;
842;SDS011;407;48.884;9.126;2022-12-18T08:30:55;36.23;;;14.43;;
842;SDS011;407;48.884;9.126;2022-12-18T08:33:21;33.20;;;17.07;;
842;SDS011;407;48.884;9.126;2022-12-18T08:35:46;39.93;;;16.80;;
842;SDS011;407;48.884;9.126;2022-12-18T08:38:12;40.53;;;16.80;;
842;SDS011;407;48.884;9.126;2022-12-18T08:40:38;40.83;;;16.95;;
842;SDS011;407;48.884;9.126;2022-12-18T08:43:03;41.17;;;17.13;;
842;SDS011;407;48.884;9.126;2022-12-18T08:45:48;33.22;;;15.32;;
842;SDS011;407;48.884;9.126;2022-12-18T08:48:13;29.98;;;11.85;;
842;SDS011;407;48.884;9.126;2022-12-18T08:50:39;32.45;;;13.60;;
842;SDS011;407;48.884;9.126;2022-12-18T08:53:05;27.45;;;11.88;;
842;SDS011;407;48.884;9.126;2022-12-18T08:55:31;32.65;;;13.32;;
842;SDS011;407;48.884;9.126;2022-12-18T08:57:57;32.88;;;14.43;;
842;SDS011;407;48.884;9.126;2022-12-18T09:00:22;36.78;;;15.95;;
842;SDS011;407;48.884;9.126;2022-12-18T09:02:48;36.97;;;13.90;;
842;SDS011;407;48.884;9.126;2022-12-18T09:05:13;34.40;;;15.73;;
842;SDS011;407;48.884;9.126;2022-12-18T09:07:39;44.40;;;14.73;;
842;SDS011;407;48.884;9.126;2022-12-18T09:10:05;40.17;;;18.15;;
842;SDS011;407;48.884;9.126;2022-12-18T09:12:31;34.38;;;16.25;;
842;SDS011;407;48.884;9.126;2022-12-18T09:14:57;30.08;;;14.55;;
842;SDS011;407;48.884;9.126;2022-12-18T09:17:22;34.73;;;15.60;;
842;SDS011;407;48.884;9.126;2022-12-18T09:19:48;32.00;;;13.43;;
842;SDS011;407;48.884;9.126;2022-12-18T09:22:14;30.05;;;14.57;;
842;SDS011;407;48.884;9.126;2022-12-18T09:24:39;31.38;;;14.38;;
842;SDS011;407;48.884;9.126;2022-12-18T09:27:05;34.40;;;15.33;;
842;SDS011;407;48.884;9.126;2022-12-18T09:29:31;36.78;;;15.80;;
842;SDS011;407;48.884;9.126;2022-12-18T09:31:57;34.25;;;14.45;;
842;SDS011;407;48.884;9.126;2022-12-18T09:34:23;37.63;;;14.77;;
842;SDS011;407;48.884;9.126;2022-12-18T09:36:48;34.20;;;15.40;;
842;SDS011;407;48.884;9.126;2022-12-18T09:39:15;32.90;;;16.10;;
842;SDS011;407;48.884;9.126;2022-12-18T09:41:42;36.00;;;16.50;;
842;SDS011;407;48.884;9.126;2022-12-18T09:44:41;36.38;;;16.52;;
842;SDS011;407;48.884;9.126;2022-12-18T09:47:15;37.90;;;16.27;;
842;SDS011;407;48.884;9.126;2022-12-18T09:50:03;41.13;;;18.02;;
842;SDS011;407;48.884;9.126;2022-12-18T09:52:40;35.75;;;16.85;;
842;SDS011;407;48.884;9.126;2022-12-18T09:55:11;37.00;;;16.98;;
842;SDS011;407;48.884;9.126;2022-12-18T09:57:56;34.22;;;15.38;;
842;SDS011;407;48.884;9.126;2022-12-18T10:00:27;40.83;;;17.80;;
842;SDS011;407;48.884;9.126;2022-12-18T10:02:53;34.63;;;16.00;;
842;SDS011;407;48.884;9.126;2022-12-18T10:08:22;36.88;;;17.25;;
842;SDS011;407;48.884;9.126;2022-12-18T10:11:01;33.22;;;15.02;;
842;SDS011;407;48.884;9.126;2022-12-18T10:13:46;41.47;;;19.58;;
842;SDS011;407;48.884;9.126;2022-12-18T10:16:21;39.40;;;17.45;;
842;SDS011;407;48.884;9.126;2022-12-18T10:19:29;34.67;;;16.80;;
842;SDS011;407;48.884;9.126;2022-12-18T10:22:18;37.25;;;16.70;;
842;SDS011;407;48.884;9.126;2022-12-18T10:24:52;34.63;;;17.60;;
842;SDS011;407;48.884;9.126;2022-12-18T10:27:45;31.58;;;17.33;;
842;SDS011;407;48.884;9.126;2022-12-18T10:30:12;41.47;;;19.80;;
842;SDS011;407;48.884;9.126;2022-12-18T10:32:40;34.58;;;19.48;;
842;SDS011;407;48.884;9.126;2022-12-18T10:35:25;37.83;;;19.70;;
842;SDS011;407;48.884;9.126;2022-12-18T10:38:05;34.95;;;18.88;;
842;SDS011;407;48.884;9.126;2022-12-18T10:43:14;35.20;;;17.23;;
842;SDS011;407;48.884;9.126;2022-12-18T10:45:41;35.55;;;18.50;;
842;SDS011;407;48.884;9.126;2022-12-18T10:48:17;33.20;;;16.45;;
842;SDS011;407;48.884;9.126;2022-12-18T10:50:46;31.13;;;16.17;;
842;SDS011;407;48.884;9.126;2022-12-18T10:53:17;32.22;;;14.45;;
842;SDS011;407;48.884;9.126;2022-12-18T10:55:46;32.10;;;13.32;;
842;SDS011;407;48.884;9.126;2022-12-18T10:58:15;31.80;;;13.80;;
842;SDS011;407;48.884;9.126;2022-12-18T11:03:36;28.60;;;12.60;;
842;SDS011;407;48.884;9.126;2022-12-18T11:06:06;29.77;;;14.45;;
842;SDS011;407;48.884;9.126;2022-12-18T11:08:37;34.35;;;14.15;;
842;SDS011;407;48.884;9.126;2022-12-18T11:11:04;33.75;;;14.10;;
842;SDS011;407;48.884;9.126;2022-12-18T11:13:39;37.63;;;13.50;;
842;SDS011;407;48.884;9.126;2022-12-18T11:16:17;31.45;;;14.45;;
842;SDS011;407;48.884;9.126;2022-12-18T11:18:46;31.38;;;14.00;;
842;SDS011;407;48.884;9.126;2022-12-18T11:21:11;30.35;;;13.15;;
842;SDS011;407;48.884;9.126;2022-12-18T11:23:52;32.30;;;13.63;;
842;SDS011;407;48.884;9.126;2022-12-18T11:26:18;35.50;;;14.32;;
842;SDS011;407;48.884;9.126;2022-12-18T11:28:52;33.15;;;13.70;;
842;SDS011;407;48.884;9.126;2022-12-18T11:31:32;27.90;;;11.90;;
842;SDS011;407;48.884;9.126;2022-12-18T11:34:07;27.17;;;11.52;;
842;SDS011;407;48.884;9.126;2022-12-18T11:36:42;30.92;;;11.65;;
842;SDS011;407;48.884;9.126;2022-12-18T11:50:20;34.93;;;13.70;;
842;SDS011;407;48.884;9.126;2022-12-18T11:52:50;31.45;;;13.80;;
842;SDS011;407;48.884;9.126;2022-12-18T11:55:19;34.15;;;13.40;;
842;SDS011;407;48.884;9.126;2022-12-18T11:58:24;32.20;;;15.20;;
842;SDS011;407;48.884;9.126;2022-12-18T12:04:10;35.28;;;15.45;;
842;SDS011;407;48.884;9.126;2022-12-18T12:12:13;35.95;;;16.17;;
842;SDS011;407;48.884;9.126;2022-12-18T12:14:57;38.53;;;15.38;;
842;SDS011;407;48.884;9.126;2022-12-18T12:17:37;35.95;;;14.68;;
842;SDS011;407;48.884;9.126;2022-12-18T12:20:30;38.15;;;15.13;;
842;SDS011;407;48.884;9.126;2022-12-18T12:23:24;43.75;;;16.65;;
842;SDS011;407;48.884;9.126;2022-12-18T12:33:50;36.85;;;14.65;;
842;SDS011;407;48.884;9.126;2022-12-18T12:39:06;38.10;;;15.07;;
842;SDS011;407;48.884;9.126;2022-12-18T12:41:37;37.97;;;14.82;;
842;SDS011;407;48.884;9.126;2022-12-18T12:44:26;31.05;;;15.27;;
842;SDS011;407;48.884;9.126;2022-12-18T12:47:00;40.40;;;15.90;;
842;SDS011;407;48.884;9.126;2022-12-18T12:49:30;39.97;;;16.20;;
842;SDS011;407;48.884;9.126;2022-12-18T12:52:10;31.88;;;13.60;;
842;SDS011;407;48.884;9.126;2022-12-18T12:54:38;32.30;;;14.43;;
842;SDS011;407;48.884;9.126;2022-12-18T12:57:09;45.75;;;15.77;;
842;SDS011;407;48.884;9.126;2022-12-18T13:00:13;39.80;;;15.52;;
842;SDS011;407;48.884;9.126;2022-12-18T13:03:01;39.35;;;16.77;;
842;SDS011;407;48.884;9.126;2022-12-18T13:08:12;33.95;;;16.15;;
842;SDS011;407;48.884;9.126;2022-12-18T13:11:21;38.58;;;14.40;;
842;SDS011;407;48.884;9.126;2022-12-18T13:14:26;35.47;;;14.63;;
842;SDS011;407;48.884;9.126;2022-12-18T13:17:26;35.03;;;14.48;;
842;SDS011;407;48.884;9.126;2022-12-18T13:25:26;38.42;;;13.98;;
842;SDS011;407;48.884;9.126;2022-12-18T13:28:01;37.05;;;15.20;;
842;SDS011;407;48.884;9.126;2022-12-18T13:35:39;35.15;;;15.00;;
842;SDS011;407;48.884;9.126;2022-12-18T13:38:23;38.42;;;16.23;;
842;SDS011;407;48.884;9.126;2022-12-18T13:40:55;36.10;;;14.57;;
842;SDS011;407;48.884;9.126;2022-12-18T13:48:32;45.20;;;18.27;;
842;SDS011;407;48.884;9.126;2022-12-18T13:53:36;44.40;;;20.07;;
842;SDS011;407;48.884;9.126;2022-12-18T13:56:08;46.95;;;19.25;;
842;SDS011;407;48.884;9.126;2022-12-18T13:58:33;36.30;;;16.40;;
842;SDS011;407;48.884;9.126;2022-12-18T14:00:59;33.42;;;14.95;;
842;SDS011;407;48.884;9.126;2022-12-18T14:03:28;34.17;;;14.38;;
842;SDS011;407;48.884;9.126;2022-12-18T14:05:56;37.17;;;16.20;;
842;SDS011;407;48.884;9.126;2022-12-18T14:08:30;36.63;;;15.27;;
842;SDS011;407;48.884;9.126;2022-12-18T14:10:59;36.33;;;16.13;;
842;SDS011;407;48.884;9.126;2022-12-18T14:13:28;36.80;;;15.10;;
842;SDS011;407;48.884;9.126;2022-12-18T14:15:56;34.75;;;12.50;;
842;SDS011;407;48.884;9.126;2022-12-18T14:18:23;36.03;;;14.52;;
842;SDS011;407;48.884;9.126;2022-12-18T14:20:57;30.20;;;13.63;;
842;SDS011;407;48.884;9.126;2022-12-18T14:23:25;31.38;;;13.40;;
842;SDS011;407;48.884;9.126;2022-12-18T14:25:57;36.13;;;14.18;;
842;SDS011;407;48.884;9.126;2022-12-18T14:28:23;31.63;;;13.00;;
842;SDS011;407;48.884;9.126;2022-12-18T14:30:49;30.90;;;13.70;;
842;SDS011;407;48.884;9.126;2022-12-18T14:33:19;36.95;;;14.20;;
842;SDS011;407;48.884;9.126;2022-12-18T14:35:54;37.75;;;14.18;;
842;SDS011;407;48.884;9.126;2022-12-18T14:41:02;31.00;;;13.33;;
842;SDS011;407;48.884;9.126;2022-12-18T14:43:35;35.63;;;14.50;;
842;SDS011;407;48.884;9.126;2022-12-18T14:46:03;30.13;;;13.03;;
842;SDS011;407;48.884;9.126;2022-12-18T14:48:35;29.40;;;12.02;;
842;SDS011;407;48.884;9.126;2022-12-18T14:54:04;34.15;;;14.25;;
842;SDS011;407;48.884;9.126;2022-12-18T14:56:34;28.98;;;12.52;;
842;SDS011;407;48.884;9.126;2022-12-18T14:59:43;34.13;;;13.38;;
842;SDS011;407;48.884;9.126;2022-12-18T15:01:56;33.38;;;15.45;;
842;SDS011;407;48.884;9.126;2022-12-18T15:04:44;37.88;;;13.68;;
842;SDS011;407;48.884;9.126;2022-12-18T15:07:22;37.15;;;15.07;;
842;SDS011;407;48.884;9.126;2022-12-18T15:10:02;33.13;;;14.18;;
842;SDS011;407;48.884;9.126;2022-12-18T15:12:42;40.28;;;15.23;;
842;SDS011;407;48.884;9.126;2022-12-18T15:17:57;43.95;;;16.85;;
842;SDS011;407;48.884;9.126;2022-12-18T15:20:26;32.60;;;14.27;;
842;SDS011;407;48.884;9.126;2022-12-18T15:22:52;35.10;;;13.87;;
842;SDS011;407;48.884;9.126;2022-12-18T15:25:29;36.45;;;14.10;;
842;SDS011;407;48.884;9.126;2022-12-18T15:27:57;39.20;;;16.27;;
842;SDS011;407;48.884;9.126;2022-12-18T15:30:26;40.37;;;14.77;;
842;SDS011;407;48.884;9.126;2022-12-18T15:32:52;34.25;;;15.20;;
842;SDS011;407;48.884;9.126;2022-12-18T15:36:00;37.87;;;14.90;;
842;SDS011;407;48.884;9.126;2022-12-18T15:38:28;38.03;;;15.80;;
842;SDS011;407;48.884;9.126;2022-12-18T15:40:53;39.50;;;15.47;;
842;SDS011;407;48.884;9.126;2022-12-18T15:43:23;37.17;;;14.97;;
842;SDS011;407;48.884;9.126;2022-12-18T15:45:58;41.58;;;16.55;;
842;SDS011;407;48.884;9.126;2022-12-18T15:48:28;38.67;;;14.83;;
842;SDS011;407;48.884;9.126;2022-12-18T15:50:55;42.60;;;16.10;;
842;SDS011;407;48.884;9.126;2022-12-18T15:53:22;37.40;;;15.07;;
842;SDS011;407;48.884;9.126;2022-12-18T15:55:50;38.42;;;15.75;;
842;SDS011;407;48.884;9.126;2022-12-18T15:58:34;36.78;;;16.50;;
842;SDS011;407;48.884;9.126;2022-12-18T16:01:00;39.28;;;16.45;;
842;SDS011;407;48.884;9.126;2022-12-18T16:03:26;35.08;;;15.10;;
842;SDS011;407;48.884;9.126;2022-12-18T16:05:52;41.33;;;18.08;;
842;SDS011;407;48.884;9.126;2022-12-18T16:08:18;41.53;;;16.43;;
842;SDS011;407;48.884;9.126;2022-12-18T16:10:44;38.00;;;14.87;;
842;SDS011;407;48.884;9.126;2022-12-18T16:13:10;38.15;;;17.17;;
842;SDS011;407;48.884;9.126;2022-12-18T16:15:37;38.53;;;16.63;;
842;SDS011;407;48.884;9.126;2022-12-18T16:18:02;41.97;;;17.92;;
842;SDS011;407;48.884;9.126;2022-12-18T16:20:28;42.78;;;16.95;;
842;SDS011;407;48.884;9.126;2022-12-18T16:22:54;40.37;;;16.33;;
842;SDS011;407;48.884;9.126;2022-12-18T16:25:20;36.23;;;15.50;;
842;SDS011;407;48.884;9.126;2022-12-18T16:27:47;35.80;;;15.80;;
842;SDS011;407;48.884;9.126;2022-12-18T16:30:17;38.90;;;18.10;;
842;SDS011;407;48.884;9.126;2022-12-18T16:32:45;36.50;;;15.48;;
842;SDS011;407;48.884;9.126;2022-12-18T16:35:12;43.15;;;16.27;;
842;SDS011;407;48.884;9.126;2022-12-18T16:37:39;37.92;;;16.60;;
842;SDS011;407;48.884;9.126;2022-12-18T16:40:09;38.53;;;16.88;;
842;SDS011;407;48.884;9.126;2022-12-18T16:42:38;35.37;;;14.10;;
842;SDS011;407;48.884;9.126;2022-12-18T16:45:05;37.60;;;15.45;;
842;SDS011;407;48.884;9.126;2022-12-18T16:47:33;40.83;;;17.08;;
842;SDS011;407;48.884;9.126;2022-12-18T16:49:59;35.50;;;15.98;;
842;SDS011;407;48.884;9.126;2022-12-18T16:52:25;40.47;;;16.45;;
842;SDS011;407;48.884;9.126;2022-12-18T16:54:51;40.53;;;14.93;;
842;SDS011;407;48.884;9.126;2022-12-18T16:57:18;37.42;;;15.48;;
842;SDS011;407;48.884;9.126;2022-12-18T16:59:45;40.58;;;14.50;;
842;SDS011;407;48.884;9.126;2022-12-18T17:02:15;38.83;;;16.10;;
842;SDS011;407;48.884;9.126;2022-12-18T17:04:42;43.93;;;16.40;;
842;SDS011;407;48.884;9.126;2022-12-18T17:07:08;41.50;;;16.85;;
842;SDS011;407;48.884;9.126;2022-12-18T17:09:34;43.90;;;17.17;;
842;SDS011;407;48.884;9.126;2022-12-18T17:12:00;38.33;;;15.90;;